Terminal Aerodrome Forecast
Issued by NWS

Home | Current Version | Previous Version | Text Only | Print | Product List | Glossary Off
Versions: 1 2 3 4 5 6 7 8 9 10 11 12 13 14 15 16 17 18 19 20 21 22 23 24 25 26

000
FTUS43 KGRB 171134
TAFATW
TAF
KATW 171134Z 1712/1812 24010G17KT P6SM OVC120 WS016/27035KT
     FM171500 24013G22KT P6SM SCT120 OVC250 WS020/27045KT
     FM171800 24016G27KT 6SM BLSN BKN250 WS020/28050KT
     FM180100 24015G23KT P6SM SCT250 WS018/28055KT
     FM180700 23010KT P6SM SKC=

USA.gov is the U.S. government's official web portal to all federal, state and local government web resources and services.